createdAt,value
2023-09-07T00:00:50.743Z,5.80
2023-09-07T00:01:50.800Z,5.10
2023-09-07T00:02:51.019Z,5.60
2023-09-07T00:03:50.781Z,5.50
2023-09-07T00:04:50.883Z,5.50
2023-09-07T00:05:50.751Z,5.60
2023-09-07T00:06:50.741Z,5.90
2023-09-07T00:07:50.713Z,4.80
2023-09-07T00:08:51.700Z,5.20
2023-09-07T00:09:51.677Z,5.10
2023-09-07T00:10:50.639Z,5.40
2023-09-07T00:11:50.843Z,5.40
2023-09-07T00:12:50.666Z,5.50
2023-09-07T00:13:50.665Z,5.20
2023-09-07T00:14:50.696Z,5.50
2023-09-07T00:15:50.709Z,5.30
2023-09-07T00:16:50.893Z,4.90
2023-09-07T00:17:50.854Z,4.70
2023-09-07T00:18:50.741Z,5.40
2023-09-07T00:19:50.759Z,5.00
2023-09-07T00:20:50.576Z,5.30
2023-09-07T00:21:50.572Z,5.60
2023-09-07T00:22:50.535Z,5.70
2023-09-07T00:23:51.272Z,5.30
2023-09-07T00:24:50.594Z,5.70
2023-09-07T00:25:50.617Z,6.10
2023-09-07T00:26:50.569Z,5.80
2023-09-07T00:27:50.524Z,5.70
2023-09-07T00:28:51.525Z,5.40
2023-09-07T00:29:50.516Z,5.60
2023-09-07T00:30:50.799Z,5.80
2023-09-07T00:31:50.648Z,5.80
2023-09-07T00:32:50.535Z,6.20
2023-09-07T00:33:50.548Z,6.40
2023-09-07T00:34:50.585Z,6.60
2023-09-07T00:35:50.451Z,6.20
2023-09-07T00:36:50.577Z,6.50
2023-09-07T00:37:50.664Z,6.30
2023-09-07T00:38:50.501Z,6.60
2023-09-07T00:39:50.344Z,6.30
2023-09-07T00:40:50.504Z,6.30
2023-09-07T00:41:50.406Z,6.30
2023-09-07T00:42:50.528Z,6.70
2023-09-07T00:43:50.386Z,6.20
2023-09-07T00:44:50.467Z,5.60
2023-09-07T00:45:50.538Z,5.70
2023-09-07T00:46:50.410Z,5.90
2023-09-07T00:47:50.460Z,5.60
2023-09-07T00:48:50.268Z,5.60
2023-09-07T00:49:50.518Z,6.00
2023-09-07T00:50:50.304Z,5.70
2023-09-07T00:51:51.145Z,5.80
2023-09-07T00:52:50.366Z,5.80
2023-09-07T00:53:50.342Z,6.10
2023-09-07T00:54:50.408Z,5.70
2023-09-07T00:55:50.244Z,5.80
2023-09-07T00:56:50.898Z,5.90
2023-09-07T00:57:50.188Z,6.60
2023-09-07T00:58:50.278Z,5.90
2023-09-07T00:59:50.148Z,6.50
2023-09-07T01:00:50.288Z,5.90
2023-09-07T01:01:50.406Z,6.00
2023-09-07T01:02:50.323Z,6.00
2023-09-07T01:03:50.931Z,5.70
2023-09-07T01:04:50.198Z,5.80
2023-09-07T01:05:50.244Z,6.00
2023-09-07T01:06:51.020Z,6.40
2023-09-07T01:07:50.349Z,6.10
2023-09-07T01:08:50.170Z,6.20
2023-09-07T01:09:50.176Z,6.50
2023-09-07T01:10:50.301Z,6.90
2023-09-07T01:11:50.161Z,6.10
2023-09-07T01:12:50.240Z,7.30
2023-09-07T01:13:50.094Z,7.30
2023-09-07T01:14:50.227Z,7.60
2023-09-07T01:15:51.156Z,7.80
2023-09-07T01:16:50.188Z,7.40
2023-09-07T01:17:51.037Z,7.30
2023-09-07T01:18:50.112Z,6.70
2023-09-07T01:19:50.140Z,7.10
2023-09-07T01:20:50.212Z,7.40
2023-09-07T01:21:50.046Z,6.60
2023-09-07T01:22:50.058Z,7.10
2023-09-07T01:23:50.046Z,6.60
2023-09-07T01:24:50.863Z,6.90
2023-09-07T01:25:49.988Z,6.50
2023-09-07T01:26:49.940Z,6.20
2023-09-07T01:27:49.974Z,6.30
2023-09-07T01:28:49.962Z,6.00
2023-09-07T01:29:49.838Z,6.40
2023-09-07T01:30:49.866Z,6.80
2023-09-07T01:31:49.960Z,6.00
2023-09-07T01:32:49.821Z,6.30
2023-09-07T01:33:49.871Z,6.00
2023-09-07T01:34:49.953Z,5.80
2023-09-07T01:35:49.974Z,6.20
2023-09-07T01:36:49.875Z,6.10
2023-09-07T01:37:49.852Z,6.20
2023-09-07T01:38:49.873Z,6.20
2023-09-07T01:39:49.765Z,6.70
2023-09-07T01:40:49.748Z,6.60
2023-09-07T01:41:49.792Z,6.30
2023-09-07T01:42:49.827Z,6.30
2023-09-07T01:43:49.785Z,7.10
2023-09-07T01:44:49.725Z,6.70
2023-09-07T01:45:49.779Z,6.10
2023-09-07T01:46:49.763Z,6.00
2023-09-07T01:47:49.917Z,5.90
2023-09-07T01:48:49.732Z,5.60
2023-09-07T01:49:49.727Z,5.60
2023-09-07T01:50:49.608Z,6.20
2023-09-07T01:51:49.620Z,5.90
2023-09-07T01:52:49.689Z,5.60
2023-09-07T01:53:49.627Z,6.60
2023-09-07T01:54:49.602Z,6.20
2023-09-07T01:55:49.589Z,7.10
2023-09-07T01:56:49.660Z,6.90
2023-09-07T01:57:49.682Z,6.70
2023-09-07T01:58:49.602Z,6.50
2023-09-07T01:59:49.590Z,6.30
2023-09-07T02:00:49.667Z,6.60
2023-09-07T02:01:49.643Z,6.70
2023-09-07T02:02:49.557Z,7.00
2023-09-07T02:03:49.590Z,6.90
2023-09-07T02:04:49.508Z,7.40
2023-09-07T02:05:49.611Z,7.10
2023-09-07T02:06:49.522Z,7.10
2023-09-07T02:07:49.525Z,7.70
2023-09-07T02:08:49.522Z,7.60
2023-09-07T02:09:49.495Z,7.80
2023-09-07T02:10:49.564Z,7.60
2023-09-07T02:11:49.465Z,6.80
2023-09-07T02:12:49.451Z,7.40
2023-09-07T02:13:49.510Z,7.60
2023-09-07T02:14:49.499Z,7.40
2023-09-07T02:15:49.423Z,7.90
2023-09-07T02:16:49.601Z,7.80
2023-09-07T02:17:49.419Z,7.20
2023-09-07T02:18:49.438Z,7.60
2023-09-07T02:19:49.411Z,7.30
2023-09-07T02:20:49.450Z,7.60
2023-09-07T02:21:49.376Z,7.00
2023-09-07T02:22:49.379Z,7.90
2023-09-07T02:23:49.391Z,6.80
2023-09-07T02:24:49.669Z,6.40
2023-09-07T02:25:49.347Z,6.70
2023-09-07T02:26:49.498Z,6.40
2023-09-07T02:27:50.273Z,6.40
2023-09-07T02:28:49.323Z,7.10
2023-09-07T02:29:49.339Z,7.60
2023-09-07T02:30:49.427Z,8.00
2023-09-07T02:31:49.282Z,8.40
2023-09-07T02:32:49.354Z,8.70
2023-09-07T02:33:49.349Z,9.00
2023-09-07T02:34:49.283Z,8.10
2023-09-07T02:35:49.294Z,8.70
2023-09-07T02:36:49.243Z,8.50
2023-09-07T02:37:49.140Z,8.20
2023-09-07T02:38:49.364Z,7.70
2023-09-07T02:39:49.145Z,7.50
2023-09-07T02:40:49.106Z,7.40
2023-09-07T02:41:49.232Z,7.40
2023-09-07T02:42:49.141Z,7.10
2023-09-07T02:43:49.205Z,7.10
2023-09-07T02:44:49.094Z,6.40
2023-09-07T02:45:49.227Z,6.70
2023-09-07T02:46:49.216Z,6.80
2023-09-07T02:47:49.152Z,7.10
2023-09-07T02:48:49.183Z,8.00
2023-09-07T02:49:49.133Z,7.50
2023-09-07T02:50:49.158Z,7.70
2023-09-07T02:51:49.081Z,7.90
2023-09-07T02:52:49.152Z,8.60
2023-09-07T02:53:49.070Z,8.20
2023-09-07T02:54:49.077Z,8.60
2023-09-07T02:55:49.106Z,8.60
2023-09-07T02:56:49.081Z,8.40
2023-09-07T02:57:49.141Z,8.90
2023-09-07T02:58:48.980Z,8.50
2023-09-07T02:59:49.990Z,8.70
2023-09-07T03:00:48.963Z,9.00
2023-09-07T03:01:49.053Z,8.80
2023-09-07T03:02:49.029Z,7.90
2023-09-07T03:03:49.107Z,8.10
2023-09-07T03:04:48.946Z,7.40
2023-09-07T03:05:48.931Z,7.60
2023-09-07T03:06:49.024Z,7.80
2023-09-07T03:07:48.901Z,7.60
2023-09-07T03:08:48.938Z,7.90
2023-09-07T03:09:48.911Z,7.80
2023-09-07T03:10:48.922Z,7.60
2023-09-07T03:11:48.871Z,7.60
2023-09-07T03:12:48.962Z,7.50
2023-09-07T03:13:49.086Z,7.30
2023-09-07T03:14:48.904Z,7.70
2023-09-07T03:15:48.848Z,7.40
2023-09-07T03:16:48.868Z,7.00
2023-09-07T03:17:48.862Z,7.30
2023-09-07T03:18:48.825Z,7.90
2023-09-07T03:19:48.809Z,7.60
2023-09-07T03:20:48.890Z,8.00
2023-09-07T03:21:48.905Z,7.20
2023-09-07T03:22:49.019Z,7.30
2023-09-07T03:23:48.657Z,7.10
2023-09-07T03:24:48.778Z,7.90
2023-09-07T03:25:48.741Z,7.80
2023-09-07T03:26:48.696Z,7.90
2023-09-07T03:27:48.989Z,8.40
2023-09-07T03:28:48.684Z,7.40
2023-09-07T03:29:48.695Z,8.00
2023-09-07T03:30:48.609Z,7.80
2023-09-07T03:31:48.741Z,8.50
2023-09-07T03:32:48.780Z,8.20
2023-09-07T03:33:48.618Z,7.50
2023-09-07T03:34:49.597Z,6.60
2023-09-07T03:35:48.647Z,7.40
2023-09-07T03:36:48.634Z,7.60
2023-09-07T03:37:48.597Z,7.30
2023-09-07T03:38:48.680Z,7.50
2023-09-07T03:39:48.586Z,7.10
2023-09-07T03:40:48.642Z,7.90
2023-09-07T03:41:48.664Z,9.20
2023-09-07T03:42:48.526Z,9.30
2023-09-07T03:43:48.533Z,9.50
2023-09-07T03:44:48.558Z,9.00
2023-09-07T03:45:48.611Z,8.40
2023-09-07T03:46:48.587Z,9.50
2023-09-07T03:47:48.563Z,9.20
2023-09-07T03:48:48.565Z,8.70
2023-09-07T03:49:48.470Z,9.50
2023-09-07T03:50:48.436Z,9.30
2023-09-07T03:51:48.463Z,8.90
2023-09-07T03:52:48.501Z,8.60
2023-09-07T03:53:48.392Z,9.00
2023-09-07T03:54:48.399Z,9.40
2023-09-07T03:55:48.447Z,9.30
2023-09-07T03:56:48.383Z,9.00
2023-09-07T03:57:48.407Z,9.40
2023-09-07T03:58:48.334Z,9.10
2023-09-07T03:59:48.384Z,8.70
2023-09-07T04:00:49.303Z,9.00
2023-09-07T04:01:48.602Z,9.40
2023-09-07T04:02:48.754Z,8.80
2023-09-07T04:03:48.545Z,8.00
2023-09-07T04:04:48.341Z,8.00
2023-09-07T04:05:48.365Z,9.30
2023-09-07T04:06:48.332Z,9.40
2023-09-07T04:07:48.352Z,9.30
2023-09-07T04:08:48.255Z,8.90
2023-09-07T04:09:48.290Z,10.10
2023-09-07T04:10:48.241Z,8.90
2023-09-07T04:11:48.309Z,9.10
2023-09-07T04:12:48.261Z,9.50
2023-09-07T04:13:48.154Z,9.60
2023-09-07T04:14:49.215Z,8.90
2023-09-07T04:15:48.245Z,8.90
2023-09-07T04:16:48.184Z,9.40
2023-09-07T04:17:48.239Z,9.10
2023-09-07T04:18:48.170Z,8.70
2023-09-07T04:19:48.141Z,8.10
2023-09-07T04:20:48.263Z,8.80
2023-09-07T04:21:48.761Z,8.10
2023-09-07T04:22:48.138Z,8.50
2023-09-07T04:23:48.145Z,8.70
2023-09-07T04:24:48.115Z,8.20
2023-09-07T04:25:48.138Z,8.10
2023-09-07T04:26:48.054Z,7.80
2023-09-07T04:27:48.110Z,7.70
2023-09-07T04:28:48.157Z,7.10
2023-09-07T04:29:48.070Z,8.10
2023-09-07T04:30:48.086Z,7.40
2023-09-07T04:31:48.125Z,7.10
2023-09-07T04:32:48.064Z,6.70
2023-09-07T04:33:47.971Z,7.30
2023-09-07T04:34:47.990Z,7.50
2023-09-07T04:35:48.065Z,7.50
2023-09-07T04:36:47.988Z,8.80
2023-09-07T04:37:48.063Z,8.90
2023-09-07T04:38:47.962Z,8.60
2023-09-07T04:39:47.962Z,8.90
2023-09-07T04:40:48.026Z,8.30
2023-09-07T04:41:47.924Z,9.30
2023-09-07T04:42:47.963Z,9.10
2023-09-07T04:43:47.922Z,8.50
2023-09-07T04:44:47.897Z,9.30
2023-09-07T04:45:48.025Z,9.20
2023-09-07T04:46:47.870Z,9.20
2023-09-07T04:47:47.966Z,8.70
2023-09-07T04:48:47.895Z,9.20
2023-09-07T04:49:47.824Z,8.80
2023-09-07T04:50:47.846Z,9.10
2023-09-07T04:51:47.788Z,8.70
2023-09-07T04:52:47.819Z,8.30
2023-09-07T04:53:48.568Z,7.90
2023-09-07T04:54:47.774Z,8.50
2023-09-07T04:55:47.785Z,8.10
2023-09-07T04:56:47.857Z,9.20
2023-09-07T04:57:47.857Z,9.60
2023-09-07T04:58:48.066Z,9.10
2023-09-07T04:59:47.765Z,8.70
2023-09-07T05:00:47.865Z,8.50
2023-09-07T05:01:47.733Z,8.60
2023-09-07T05:02:47.758Z,9.20
2023-09-07T05:03:47.896Z,8.30
2023-09-07T05:04:47.740Z,7.90
2023-09-07T05:05:47.668Z,8.90
2023-09-07T05:06:47.699Z,9.00
2023-09-07T05:07:47.865Z,9.00
2023-09-07T05:08:47.663Z,9.40
2023-09-07T05:09:47.760Z,9.50
2023-09-07T05:10:47.758Z,9.70
2023-09-07T05:11:47.618Z,9.00
2023-09-07T05:12:47.723Z,8.80
2023-09-07T05:13:47.584Z,8.50
2023-09-07T05:14:47.602Z,8.50
2023-09-07T05:15:47.614Z,8.50
2023-09-07T05:16:47.623Z,7.70
2023-09-07T05:17:47.603Z,7.80
2023-09-07T05:18:47.643Z,8.20
2023-09-07T05:19:47.534Z,8.80
2023-09-07T05:20:47.546Z,8.70
2023-09-07T05:21:47.607Z,7.90
2023-09-07T05:22:47.560Z,8.60
2023-09-07T05:23:47.470Z,8.90
2023-09-07T05:24:47.549Z,8.50
2023-09-07T05:25:47.561Z,7.80
2023-09-07T05:26:47.565Z,7.90
2023-09-07T05:27:47.594Z,7.80
2023-09-07T05:28:47.457Z,8.70
2023-09-07T05:29:47.443Z,8.90
2023-09-07T05:30:47.628Z,8.10
2023-09-07T05:31:47.482Z,8.20
2023-09-07T05:32:47.448Z,8.20
2023-09-07T05:33:47.456Z,8.70
2023-09-07T05:34:47.371Z,8.20
2023-09-07T05:35:47.450Z,8.40
2023-09-07T05:36:47.479Z,8.60
2023-09-07T05:37:47.512Z,8.10
2023-09-07T05:38:47.403Z,8.20
2023-09-07T05:39:47.542Z,7.90
2023-09-07T05:40:47.339Z,8.30
2023-09-07T05:41:47.373Z,8.00
2023-09-07T05:45:57.982Z,8.50
2023-09-07T05:47:05.669Z,8.10
2023-09-07T05:48:05.564Z,8.40
2023-09-07T05:49:33.911Z,8.20
2023-09-07T05:53:38.608Z,8.30
2023-09-07T05:54:47.342Z,8.80
2023-09-07T05:56:12.298Z,7.90
2023-09-07T05:57:12.283Z,8.30
2023-09-07T05:58:12.303Z,8.90
2023-09-07T05:59:14.452Z,8.00
2023-09-07T06:00:12.357Z,8.30
2023-09-07T06:01:12.362Z,8.30
2023-09-07T06:01:40.049Z,7.90
2023-09-07T06:03:13.901Z,7.90
2023-09-07T06:03:40.183Z,8.00
2023-09-07T06:05:24.174Z,8.70
2023-09-07T06:05:40.198Z,8.40
2023-09-07T06:07:12.640Z,8.60
2023-09-07T06:07:40.426Z,8.20
2023-09-07T06:08:39.895Z,8.50
2023-09-07T06:09:39.914Z,8.00
2023-09-07T06:10:39.914Z,7.90
2023-09-07T06:11:40.448Z,8.10
2023-09-07T06:12:39.991Z,7.90
2023-09-07T06:13:39.893Z,7.70
2023-09-07T06:14:39.893Z,7.60
2023-09-07T06:15:39.685Z,7.70
2023-09-07T06:16:39.704Z,8.30
2023-09-07T06:17:39.754Z,7.60
2023-09-07T06:18:39.687Z,8.10
2023-09-07T06:19:39.764Z,7.50
2023-09-07T06:20:39.998Z,8.40
2023-09-07T06:21:39.841Z,8.10
2023-09-07T06:22:40.130Z,8.10
2023-09-07T06:23:40.094Z,7.80
2023-09-07T06:24:39.748Z,8.60
2023-09-07T06:25:39.787Z,8.00
2023-09-07T06:26:39.773Z,8.10
2023-09-07T06:27:39.793Z,7.70
2023-09-07T06:28:40.544Z,8.00
2023-09-07T06:29:39.588Z,8.00
2023-09-07T06:30:39.890Z,7.80
2023-09-07T06:31:40.282Z,8.10
2023-09-07T06:32:39.935Z,7.70
2023-09-07T06:33:39.534Z,7.80
2023-09-07T06:34:39.995Z,8.60
2023-09-07T06:35:39.986Z,8.80
2023-09-07T06:50:41.492Z,7.90
2023-09-07T06:51:41.673Z,8.50
2023-09-07T06:52:43.845Z,8.60
2023-09-07T06:53:56.687Z,8.40
2023-09-07T06:54:44.879Z,9.40
2023-09-07T06:55:43.904Z,8.70
2023-09-07T06:56:43.025Z,9.90
2023-09-07T06:57:44.103Z,9.20
2023-09-07T06:58:42.789Z,8.90
2023-09-07T06:59:45.211Z,9.80
2023-09-07T07:00:44.981Z,9.50
2023-09-07T07:01:43.045Z,9.30
2023-09-07T07:02:43.621Z,8.80
2023-09-07T07:03:45.416Z,9.00
2023-09-07T07:04:43.045Z,8.80
2023-09-07T07:05:43.040Z,9.00
2023-09-07T07:06:43.707Z,8.50
2023-09-07T07:07:42.798Z,8.70
2023-09-07T07:08:46.394Z,8.60
2023-09-07T07:09:55.538Z,8.70
2023-09-07T07:10:51.857Z,8.90
2023-09-07T07:11:45.408Z,8.60
2023-09-07T07:12:43.730Z,8.00
2023-09-07T07:14:56.519Z,8.10
2023-09-07T07:15:04.287Z,8.30
2023-09-07T07:16:12.854Z,8.00
2023-09-07T07:17:01.578Z,8.50
2023-09-07T07:18:04.662Z,8.10
2023-09-07T07:19:36.340Z,8.10
2023-09-07T07:20:35.732Z,8.70
2023-09-07T07:21:14.668Z,7.80
2023-09-07T07:22:06.916Z,7.90
2023-09-07T07:23:02.078Z,8.00
2023-09-07T07:24:17.626Z,8.10
2023-09-07T07:25:20.734Z,7.90
2023-09-07T07:26:24.278Z,7.80
2023-09-07T07:28:09.007Z,8.00
2023-09-07T07:28:50.665Z,7.70
2023-09-07T07:29:49.293Z,7.40
2023-09-07T07:30:45.746Z,7.40
2023-09-07T07:31:21.065Z,7.50
2023-09-07T07:32:13.736Z,7.20
2023-09-07T07:33:33.527Z,7.80
2023-09-07T07:34:18.727Z,7.60
2023-09-07T07:36:22.796Z,7.90
2023-09-07T07:37:03.003Z,7.20
2023-09-07T07:37:35.876Z,7.70
2023-09-07T07:38:26.828Z,7.60
2023-09-07T07:39:27.235Z,7.10
2023-09-07T07:40:29.076Z,7.40
2023-09-07T07:42:08.685Z,7.60
2023-09-07T07:42:40.845Z,7.40
2023-09-07T07:44:10.922Z,7.30
2023-09-07T07:44:36.250Z,7.10
2023-09-07T07:45:35.333Z,7.60
2023-09-07T07:47:39.212Z,7.20
2023-09-07T07:47:43.439Z,7.30
2023-09-07T07:48:56.751Z,6.60
2023-09-07T07:49:57.157Z,6.30
2023-09-07T07:50:47.421Z,6.70
2023-09-07T07:52:12.438Z,7.10
2023-09-07T07:52:50.547Z,6.90
2023-09-07T07:53:52.492Z,6.90
2023-09-07T07:55:07.143Z,6.50
2023-09-07T07:55:49.114Z,7.10
2023-09-07T07:57:40.348Z,6.40
2023-09-07T07:57:59.161Z,6.80
2023-09-07T08:00:26.505Z,6.60
2023-09-07T08:02:00.745Z,6.20
2023-09-07T08:02:03.130Z,5.40
2023-09-07T08:03:03.116Z,5.00
2023-09-07T08:04:50.416Z,5.70
2023-09-07T08:05:02.654Z,5.70
2023-09-07T08:06:02.752Z,5.50
2023-09-07T08:07:16.869Z,5.90
2023-09-07T08:08:26.807Z,5.70
2023-09-07T08:09:03.263Z,5.70
2023-09-07T08:10:02.554Z,5.50
2023-09-07T08:11:02.811Z,5.60
2023-09-07T08:12:03.250Z,6.00
2023-09-07T08:13:15.952Z,5.60
2023-09-07T08:14:39.986Z,5.80
2023-09-07T08:15:27.133Z,5.40
2023-09-07T08:16:23.660Z,5.50
2023-09-07T08:17:23.577Z,5.60
2023-09-07T08:18:10.989Z,5.30
2023-09-07T08:19:02.513Z,5.30
2023-09-07T08:20:47.725Z,5.60
2023-09-07T08:28:28.175Z,5.40
2023-09-07T08:29:39.676Z,5.50
2023-09-07T08:32:25.882Z,5.20
2023-09-07T08:32:43.924Z,5.10
2023-09-07T08:34:02.052Z,5.10
2023-09-07T08:36:46.581Z,5.50
2023-09-07T08:36:59.210Z,4.60
2023-09-07T08:38:07.692Z,5.20
2023-09-07T08:38:52.291Z,5.20
2023-09-07T08:39:52.098Z,4.60
2023-09-07T08:40:55.202Z,4.90
2023-09-07T08:42:01.079Z,4.80
2023-09-07T08:42:52.876Z,4.90
2023-09-07T08:43:52.642Z,4.90
2023-09-07T08:44:52.866Z,4.80
2023-09-07T08:45:51.956Z,4.80
2023-09-07T08:46:53.955Z,4.40
2023-09-07T08:48:05.815Z,4.40
2023-09-07T08:49:02.245Z,4.50
2023-09-07T08:50:01.655Z,4.30
2023-09-07T08:51:32.420Z,4.80
2023-09-07T08:51:54.899Z,4.80
2023-09-07T08:53:41.151Z,5.00
2023-09-07T08:53:52.541Z,4.90
2023-09-07T08:55:24.327Z,4.30
2023-09-07T08:55:52.779Z,4.30
2023-09-07T08:56:53.109Z,4.00
2023-09-07T09:01:07.543Z,4.00
2023-09-07T09:02:09.227Z,4.20
2023-09-07T09:03:00.575Z,3.80
2023-09-07T09:04:01.494Z,4.10
2023-09-07T09:05:24.992Z,4.20
2023-09-07T09:06:32.918Z,4.00
2023-09-07T09:07:05.421Z,4.20
2023-09-07T09:10:14.588Z,3.70
2023-09-07T09:11:14.562Z,4.10
2023-09-07T09:12:18.600Z,4.20
2023-09-07T09:13:14.793Z,3.80
2023-09-07T09:14:16.141Z,3.70
2023-09-07T09:15:16.448Z,4.00
2023-09-07T09:18:48.035Z,3.80
2023-09-07T09:19:54.451Z,3.70
2023-09-07T09:23:26.443Z,3.80
2023-09-07T09:24:26.766Z,3.80
2023-09-07T09:28:39.442Z,3.90
2023-09-07T09:29:39.459Z,3.60
2023-09-07T09:32:29.174Z,4.00
2023-09-07T09:33:57.950Z,3.90
2023-09-07T09:34:30.441Z,3.60
2023-09-07T09:35:31.957Z,4.00
2023-09-07T09:37:27.136Z,3.90
2023-09-07T09:37:32.378Z,3.70
2023-09-07T09:38:31.672Z,4.00
2023-09-07T09:40:04.012Z,4.00
2023-09-07T09:44:37.423Z,3.20
2023-09-07T09:46:31.850Z,3.70
2023-09-07T09:46:37.411Z,3.70
2023-09-07T09:49:39.150Z,3.30
2023-09-07T09:52:27.048Z,3.90
2023-09-07T09:53:34.793Z,3.70
2023-09-07T09:56:44.460Z,3.60
2023-09-07T09:57:44.528Z,3.60
2023-09-07T09:58:45.948Z,3.70
2023-09-07T09:59:49.099Z,3.60
2023-09-07T10:00:56.260Z,3.40
2023-09-07T10:01:45.656Z,3.80
2023-09-07T10:05:27.199Z,3.20
2023-09-07T10:06:35.740Z,3.70
2023-09-07T10:10:41.166Z,3.10
2023-09-07T10:13:31.861Z,3.30
2023-09-07T10:14:32.525Z,3.40
2023-09-07T10:15:31.991Z,3.90
2023-09-07T10:16:33.620Z,3.20
2023-09-07T10:19:45.247Z,3.30
2023-09-07T10:20:45.457Z,3.30
2023-09-07T10:21:45.771Z,3.10
2023-09-07T10:22:50.803Z,3.40
2023-09-07T10:23:51.657Z,3.30
2023-09-07T10:25:15.568Z,3.20
2023-09-07T10:26:18.897Z,3.40
2023-09-07T10:27:18.794Z,3.40
2023-09-07T10:28:19.338Z,3.50
2023-09-07T10:28:46.533Z,3.10
2023-09-07T10:32:27.784Z,3.10
2023-09-07T10:33:29.306Z,3.30
2023-09-07T10:34:31.733Z,3.20
2023-09-07T10:38:10.609Z,3.10
2023-09-07T10:39:12.674Z,3.00
2023-09-07T10:40:10.710Z,3.20
2023-09-07T10:41:10.594Z,3.40
2023-09-07T10:45:52.880Z,2.90
2023-09-07T10:49:10.361Z,2.80
2023-09-07T10:53:48.760Z,2.90
2023-09-07T10:54:56.663Z,3.00
2023-09-07T10:57:21.554Z,2.80
2023-09-07T10:58:30.130Z,3.00
2023-09-07T10:59:29.323Z,3.20
2023-09-07T11:00:21.643Z,3.10
2023-09-07T11:03:40.121Z,2.90
2023-09-07T11:04:49.788Z,3.20
2023-09-07T11:05:45.790Z,3.00
2023-09-07T11:08:57.618Z,2.90
2023-09-07T11:09:58.383Z,3.30
2023-09-07T11:10:57.697Z,2.70
2023-09-07T11:11:57.619Z,3.00
2023-09-07T11:15:53.809Z,2.70
2023-09-07T11:17:01.395Z,3.00
2023-09-07T11:17:53.787Z,2.70
2023-09-07T11:19:01.444Z,2.70
2023-09-07T11:21:44.188Z,2.70
2023-09-07T11:23:02.889Z,2.90
2023-09-07T11:24:21.842Z,2.80
2023-09-07T11:24:47.321Z,2.70
2023-09-07T11:26:19.242Z,2.70
2023-09-07T11:26:45.964Z,3.00
2023-09-07T11:31:09.028Z,2.60
2023-09-07T11:32:17.034Z,3.00
2023-09-07T11:33:42.942Z,3.00
2023-09-07T11:34:13.422Z,3.20
2023-09-07T11:37:18.014Z,3.00
2023-09-07T11:40:06.861Z,2.70
2023-09-07T11:43:21.420Z,3.50
2023-09-07T11:46:34.849Z,3.60
2023-09-07T11:47:36.941Z,4.60
2023-09-07T11:48:43.625Z,3.60
2023-09-07T11:49:34.819Z,2.90
2023-09-07T11:50:42.611Z,2.90
2023-09-07T11:51:42.776Z,2.90
2023-09-07T11:52:43.692Z,2.90
2023-09-07T11:53:43.746Z,2.60
2023-09-07T12:00:06.741Z,2.50
2023-09-07T12:01:15.895Z,2.80
2023-09-07T12:02:06.794Z,2.70
2023-09-07T12:03:15.999Z,2.60
2023-09-07T12:06:20.417Z,2.30
2023-09-07T12:07:29.118Z,2.50
2023-09-07T12:08:28.098Z,2.30
2023-09-07T12:09:36.118Z,2.30
2023-09-07T12:10:54.148Z,2.60
2023-09-07T12:15:28.988Z,2.30
2023-09-07T12:19:47.438Z,2.20
2023-09-07T12:20:55.165Z,2.40
2023-09-07T12:23:29.618Z,2.30
2023-09-07T12:24:37.153Z,2.40
2023-09-07T12:25:38.641Z,2.60
2023-09-07T12:26:29.758Z,2.70
2023-09-07T12:28:29.598Z,2.20
2023-09-07T12:29:29.522Z,2.30
2023-09-07T12:33:16.212Z,2.30
2023-09-07T12:34:23.892Z,2.30
2023-09-07T12:35:16.550Z,2.20
2023-09-07T12:36:50.599Z,2.40
2023-09-07T12:39:27.845Z,2.60
2023-09-07T12:42:20.147Z,2.20
2023-09-07T12:45:09.845Z,2.10
2023-09-07T12:46:17.492Z,2.30
2023-09-07T12:47:17.827Z,2.50
2023-09-07T12:56:40.273Z,2.50
2023-09-07T12:59:29.649Z,2.40
2023-09-07T13:00:37.303Z,2.40
2023-09-07T13:01:38.442Z,2.30
2023-09-07T13:03:56.673Z,2.30
2023-09-07T13:05:05.445Z,2.30
2023-09-07T13:09:03.942Z,2.20
2023-09-07T13:10:11.698Z,2.40
2023-09-07T13:11:06.474Z,2.60
2023-09-07T13:14:16.636Z,2.50
2023-09-07T13:17:05.225Z,2.30
2023-09-07T13:18:17.568Z,2.30
2023-09-07T13:21:23.876Z,2.40
2023-09-07T13:27:00.504Z,2.50
2023-09-07T13:31:15.671Z,2.70
2023-09-07T13:35:53.616Z,2.70
2023-09-07T13:36:55.165Z,2.70
2023-09-07T13:37:55.705Z,2.60
2023-09-07T13:42:03.783Z,2.40
2023-09-07T13:43:11.586Z,2.60
2023-09-07T13:44:03.793Z,2.80
2023-09-07T13:50:05.989Z,2.70
2023-09-07T13:53:49.343Z,2.70
2023-09-07T13:55:26.443Z,3.00
2023-09-07T13:58:18.299Z,2.70
2023-09-07T13:59:27.321Z,2.90
2023-09-07T14:00:52.052Z,2.70
2023-09-07T14:03:31.594Z,3.10
2023-09-07T14:07:47.094Z,2.80
2023-09-07T14:08:55.832Z,2.90
2023-09-07T14:12:45.409Z,3.50
2023-09-07T14:13:56.184Z,3.00
2023-09-07T14:14:47.235Z,3.00
2023-09-07T14:17:44.903Z,3.10
2023-09-07T14:20:58.376Z,2.80
2023-09-07T14:26:36.939Z,2.80
2023-09-07T14:27:45.754Z,3.00
2023-09-07T14:30:27.307Z,3.30
2023-09-07T14:31:34.813Z,3.10
2023-09-07T14:32:35.839Z,2.60
2023-09-07T14:33:35.123Z,2.80
2023-09-07T14:34:34.849Z,2.90
2023-09-07T14:37:01.879Z,3.00
2023-09-07T14:38:09.565Z,3.20
2023-09-07T14:47:24.424Z,2.60
2023-09-07T14:48:31.618Z,3.20
2023-09-07T14:50:51.418Z,2.80
2023-09-07T14:53:39.304Z,3.00
2023-09-07T14:54:47.128Z,3.40
2023-09-07T14:55:44.315Z,3.10
2023-09-07T14:58:54.324Z,3.00
2023-09-07T15:00:04.158Z,2.80
2023-09-07T15:01:03.186Z,2.80
2023-09-07T15:02:03.447Z,2.90
2023-09-07T15:04:48.973Z,2.90
2023-09-07T15:06:00.817Z,3.20
2023-09-07T15:14:01.141Z,2.90
2023-09-07T15:15:09.148Z,3.00
2023-09-07T15:17:27.575Z,3.20
2023-09-07T15:18:37.027Z,3.20
2023-09-07T15:19:36.650Z,3.40
2023-09-07T15:20:35.926Z,3.20
2023-09-07T15:21:35.250Z,3.30
2023-09-07T15:24:11.399Z,3.00
2023-09-07T15:25:18.158Z,3.20
2023-09-07T15:27:43.177Z,2.90
2023-09-07T15:28:52.060Z,3.40
2023-09-07T15:29:50.888Z,3.10
2023-09-07T15:30:54.335Z,3.10
2023-09-07T15:31:51.372Z,3.30
2023-09-07T15:32:55.856Z,3.10
2023-09-07T15:33:43.173Z,3.20
2023-09-07T15:34:51.814Z,3.10
2023-09-07T15:35:43.093Z,3.10
2023-09-07T15:38:15.835Z,3.10
2023-09-07T15:39:23.692Z,3.20
2023-09-07T15:40:23.580Z,3.10
2023-09-07T15:44:51.443Z,3.00
2023-09-07T15:45:59.030Z,3.50
2023-09-07T15:46:59.944Z,3.50
2023-09-07T15:47:59.073Z,3.50
2023-09-07T15:48:58.989Z,3.30
2023-09-07T15:51:40.692Z,3.00
2023-09-07T15:53:14.973Z,3.30
2023-09-07T15:53:42.079Z,3.10
2023-09-07T15:54:42.019Z,3.60
2023-09-07T15:56:18.081Z,3.00
2023-09-07T15:56:42.030Z,3.30
2023-09-07T15:58:14.329Z,3.00
2023-09-07T15:58:41.853Z,3.10
2023-09-07T16:00:15.527Z,3.50
2023-09-07T16:01:15.779Z,3.10
2023-09-07T16:03:50.254Z,3.20
2023-09-07T16:04:58.833Z,3.50
2023-09-07T16:06:25.399Z,3.40
2023-09-07T16:06:51.328Z,3.00
2023-09-07T16:08:23.841Z,3.70
2023-09-07T16:16:45.640Z,3.30
2023-09-07T16:17:53.309Z,3.30
2023-09-07T16:19:21.470Z,3.40
2023-09-07T16:20:19.344Z,3.40
2023-09-07T16:21:20.091Z,3.30
2023-09-07T16:22:19.325Z,3.70
2023-09-07T16:23:19.301Z,3.20
2023-09-07T16:26:57.844Z,3.10
2023-09-07T16:27:57.921Z,3.10
2023-09-07T16:28:57.961Z,3.10
2023-09-07T16:30:05.530Z,3.20
2023-09-07T16:31:31.606Z,3.40
2023-09-07T16:31:59.191Z,3.40
2023-09-07T16:35:11.794Z,3.10
2023-09-07T16:36:11.926Z,3.50
2023-09-07T16:37:40.485Z,3.10
2023-09-07T16:38:46.528Z,3.10
2023-09-07T16:39:13.078Z,3.30
2023-09-07T16:40:45.664Z,3.10
2023-09-07T16:43:28.140Z,3.50
2023-09-07T16:44:35.763Z,3.10
2023-09-07T16:46:03.059Z,3.20
2023-09-07T16:46:29.492Z,3.30
2023-09-07T16:47:29.311Z,3.30
2023-09-07T16:49:01.863Z,3.40
2023-09-07T16:50:02.055Z,3.20
2023-09-07T16:51:01.744Z,3.40
2023-09-07T16:51:29.308Z,3.30
2023-09-07T16:53:03.076Z,3.20
2023-09-07T16:54:01.716Z,3.30
2023-09-07T16:55:01.749Z,3.40
2023-09-07T16:56:02.719Z,3.40
2023-09-07T16:56:29.529Z,3.10
2023-09-07T17:02:36.132Z,3.20
2023-09-07T17:05:21.012Z,3.00
2023-09-07T17:06:31.035Z,3.00
2023-09-07T17:07:28.585Z,3.10
2023-09-07T17:08:28.795Z,3.40
2023-09-07T17:09:54.686Z,3.10
2023-09-07T17:12:58.067Z,3.00
2023-09-07T17:14:06.019Z,3.10
2023-09-07T17:17:14.828Z,3.00
2023-09-07T17:20:04.722Z,3.30
2023-09-07T17:21:12.348Z,3.10
2023-09-07T17:22:04.724Z,3.50
2023-09-07T17:24:37.604Z,2.90
2023-09-07T17:25:47.281Z,3.30
2023-09-07T17:27:11.295Z,3.30
2023-09-07T17:27:38.902Z,3.20
2023-09-07T17:28:38.962Z,3.30
2023-09-07T17:29:38.833Z,3.40
2023-09-07T17:30:38.720Z,3.10
2023-09-07T17:31:38.645Z,3.00
2023-09-07T17:32:38.669Z,3.10
2023-09-07T17:33:38.637Z,3.60
2023-09-07T17:34:38.607Z,3.70
2023-09-07T17:37:53.796Z,3.70
2023-09-07T17:38:53.893Z,3.70
2023-09-07T17:39:55.211Z,3.70
2023-09-07T17:40:54.938Z,3.60
2023-09-07T17:41:54.956Z,3.70
2023-09-07T17:42:54.903Z,3.20
2023-09-07T17:43:54.917Z,3.40
2023-09-07T17:44:54.902Z,3.50
2023-09-07T17:45:54.845Z,3.50
2023-09-07T17:46:54.898Z,3.30
2023-09-07T17:47:54.914Z,3.40
2023-09-07T17:48:54.836Z,3.10